Chanhassen, Minnesota
Current Conditions -  °F | °C
As of 9:53 PM on Monday 20 Oct 2014 (Local Time) from KFCM Reporting Station
Clear Clear  
Wind Chill: 50°   Ceiling: Unl
Heat Index: 50°   Visibility: 10mi
Dew Point: 40°   Wind: 7mph
Humidity: 68%   Direction: 50°NE
Pressure: 30.06"   Gusts: NA
Location:  44.86°N, 93.54°W
Report Text: KFCM 210253Z 05006KT 10SM CLR 10/04 A3006 RMK AO2 SLP182 T01000044 52014
Loading
Personal Weather Stations






























Interactive Weather Map
Tropical Storm Tracking
New forecast layout! Learn more

10-Day Weather Forecast

Advertisements
Track Severe Weather on mobile